Time;durP1;ratioP1;P1;durP2;ratioP2;P2;SDS_P1;SDS_P2;PMS_P1;PMS_P2;Temp;Humidity;BMP_temperature;BMP_pressure;BME280_temperature;BME280_humidity;BME280_pressure;Samples;Min_cycle;Max_cycle;Signal;HPM_P1;HPM_P2
2022/10/02 00:02:20;;;;;;;6.10;0.98;;;;;;;;;;5105606;28;20035;-71
2022/10/02 00:05:01;;;;;;;0.70;0.70;;;;;;;;;;5105469;28;20039;-71
2022/10/02 00:07:51;;;;;;;1.10;1.00;;;;;;;;;;5105752;28;20115;-71
2022/10/02 00:10:22;;;;;;;1.67;1.58;;;;;;;;;;5105789;28;20043;-70
2022/10/02 00:12:53;;;;;;;1.77;1.20;;;;;;;;;;5104952;28;20510;-70
2022/10/02 00:15:26;;;;;;;1.95;1.70;;;;;;;;;;5101152;28;20097;-71
2022/10/02 00:17:56;;;;;;;1.45;1.23;;;;;;;;;;5104929;28;20526;-71
2022/10/02 00:20:29;;;;;;;2.65;1.00;;;;;;;;;;5105923;28;20075;-71
2022/10/02 00:23:02;;;;;;;0.77;0.77;;;;;;;;;;5105492;28;20056;-71
2022/10/02 00:25:38;;;;;;;4.03;0.85;;;;;;;;;;5104984;28;20044;-70
2022/10/02 00:28:11;;;;;;;4.68;1.23;;;;;;;;;;5109028;28;20068;-70
2022/10/02 00:30:54;;;;;;;3.83;1.08;;;;;;;;;;5109242;28;20051;-69
2022/10/02 00:33:32;;;;;;;2.58;1.30;;;;;;;;;;5107340;28;20158;-71
2022/10/02 00:36:03;;;;;;;0.77;0.70;;;;;;;;;;5108046;28;20524;-70
2022/10/02 00:38:32;;;;;;;;;;;;;;;;;;5108465;28;20555;-71
2022/10/02 00:41:14;;;;;;;2.22;1.10;;;;;;;;;;5108288;28;19924;-71
2022/10/02 00:43:47;;;;;;;4.22;1.08;;;;;;;;;;5108338;28;20399;-69
2022/10/02 00:46:22;;;;;;;1.10;1.10;;;;;;;;;;5108305;28;20096;-69
2022/10/02 00:49:11;;;;;;;2.03;1.10;;;;;;;;;;5108376;28;20080;-70
2022/10/02 00:51:50;;;;;;;3.03;1.00;;;;;;;;;;5106392;28;20082;-71
2022/10/02 00:54:18;;;;;;;1.42;1.10;;;;;;;;;;5107186;28;20126;-70
2022/10/02 00:56:52;;;;;;;0.90;0.90;;;;;;;;;;5107877;28;20166;-70
2022/10/02 00:59:38;;;;;;;1.30;1.17;;;;;;;;;;5108027;28;20115;-70
2022/10/02 01:02:11;;;;;;;1.40;1.20;;;;;;;;;;5108029;28;20048;-71
2022/10/02 01:04:40;;;;;;;1.30;1.17;;;;;;;;;;5087737;28;20078;-70
2022/10/02 01:07:09;;;;;;;2.08;1.20;;;;;;;;;;5106004;28;20090;-70
2022/10/02 01:09:38;;;;;;;4.00;1.33;;;;;;;;;;5107665;28;20494;-71
2022/10/02 01:12:06;;;;;;;3.30;1.00;;;;;;;;;;5106680;28;20028;-70
2022/10/02 01:14:34;;;;;;;1.95;0.88;;;;;;;;;;5107172;28;20119;-70
2022/10/02 01:17:02;;;;;;;4.85;1.10;;;;;;;;;;5107675;28;20046;-69
2022/10/02 01:19:33;;;;;;;2.67;1.30;;;;;;;;;;5107738;28;20050;-70
2022/10/02 01:22:10;;;;;;;3.80;1.27;;;;;;;;;;5107518;28;20438;-70
2022/10/02 01:24:51;;;;;;;5.07;1.17;;;;;;;;;;5106481;28;20586;-71
2022/10/02 01:27:18;;;;;;;1.55;1.30;;;;;;;;;;5105791;28;20532;-70
2022/10/02 01:29:48;;;;;;;1.35;1.23;;;;;;;;;;5107524;28;20062;-70
2022/10/02 01:32:17;;;;;;;1.70;1.00;;;;;;;;;;5107112;28;20097;-70
2022/10/02 01:34:45;;;;;;;1.15;1.00;;;;;;;;;;5106773;28;20047;-70
2022/10/02 01:37:13;;;;;;;6.10;1.35;;;;;;;;;;5105761;28;20048;-70
2022/10/02 01:39:40;;;;;;;2.47;1.00;;;;;;;;;;5107650;28;20098;-71
2022/10/02 01:42:08;;;;;;;1.73;1.10;;;;;;;;;;5106902;28;20059;-70
2022/10/02 01:44:35;;;;;;;2.63;2.00;;;;;;;;;;5105161;28;20055;-70
2022/10/02 01:47:11;;;;;;;2.78;1.08;;;;;;;;;;5106263;28;20039;-70
2022/10/02 01:49:39;;;;;;;1.30;1.02;;;;;;;;;;5106453;28;20079;-70
2022/10/02 01:52:06;;;;;;;2.63;0.90;;;;;;;;;;5106573;28;20039;-69
2022/10/02 01:54:52;;;;;;;1.17;0.95;;;;;;;;;;5106084;28;20039;-69
2022/10/02 01:57:38;;;;;;;2.17;1.42;;;;;;;;;;5106141;28;20062;-70
2022/10/02 02:00:08;;;;;;;2.70;1.00;;;;;;;;;;5104274;28;20130;-70
2022/10/02 02:02:44;;;;;;;3.95;1.02;;;;;;;;;;5106728;28;20793;-70
2022/10/02 02:05:25;;;;;;;5.75;1.15;;;;;;;;;;5106566;28;20125;-71
2022/10/02 02:08:00;;;;;;;2.90;1.02;;;;;;;;;;5105848;28;20044;-70
2022/10/02 02:10:28;;;;;;;2.42;1.00;;;;;;;;;;5105118;28;20065;-70
2022/10/02 02:12:59;;;;;;;1.33;1.08;;;;;;;;;;5106150;28;20054;-69
2022/10/02 02:15:34;;;;;;;5.13;0.93;;;;;;;;;;5105614;28;20036;-70
2022/10/02 02:18:31;;;;;;;3.50;1.00;;;;;;;;;;5104970;28;20055;-69
2022/10/02 02:21:03;;;;;;;5.72;1.40;;;;;;;;;;5081118;28;20054;-70
2022/10/02 02:23:32;;;;;;;1.73;0.90;;;;;;;;;;5104939;28;20052;-70
2022/10/02 02:26:02;;;;;;;0.93;0.90;;;;;;;;;;5105948;28;20495;-70
2022/10/02 02:28:31;;;;;;;1.80;1.00;;;;;;;;;;5105514;28;20057;-70
2022/10/02 02:31:01;;;;;;;1.40;1.10;;;;;;;;;;5107223;28;20055;-70
2022/10/02 02:33:36;;;;;;;1.38;1.20;;;;;;;;;;5106340;28;20105;-70
2022/10/02 02:36:07;;;;;;;0.70;0.70;;;;;;;;;;5105738;28;20568;-70
2022/10/02 02:38:37;;;;;;;1.75;1.17;;;;;;;;;;5106058;28;20050;-68
2022/10/02 02:41:16;;;;;;;1.50;1.13;;;;;;;;;;5105385;28;20079;-69
2022/10/02 02:43:46;;;;;;;1.42;1.30;;;;;;;;;;5106968;28;20134;-69
2022/10/02 02:46:18;;;;;;;3.30;1.30;;;;;;;;;;5106024;28;20086;-70
2022/10/02 02:48:49;;;;;;;3.72;1.00;;;;;;;;;;5106189;28;20143;-69
2022/10/02 02:51:20;;;;;;;3.15;1.40;;;;;;;;;;5106163;28;20046;-70
2022/10/02 02:53:51;;;;;;;1.27;0.95;;;;;;;;;;5105607;28;20040;-70
2022/10/02 02:56:20;;;;;;;2.70;1.15;;;;;;;;;;5106050;28;20490;-69
2022/10/02 02:58:54;;;;;;;5.72;1.38;;;;;;;;;;5105882;28;20055;-70
2022/10/02 03:01:21;;;;;;;1.38;1.27;;;;;;;;;;5106373;28;20124;-70
2022/10/02 03:03:49;;;;;;;1.40;1.30;;;;;;;;;;5105566;28;20059;-70
2022/10/02 03:06:20;;;;;;;1.45;1.35;;;;;;;;;;5103916;28;20051;-70
2022/10/02 03:08:50;;;;;;;1.23;1.13;;;;;;;;;;5105909;28;20686;-70
2022/10/02 03:11:17;;;;;;;5.55;1.20;;;;;;;;;;5106128;28;20468;-70
2022/10/02 03:13:50;;;;;;;2.08;1.50;;;;;;;;;;5104951;28;20055;-69
2022/10/02 03:16:25;;;;;;;1.73;1.50;;;;;;;;;;5104462;28;20043;-69
2022/10/02 03:19:02;;;;;;;1.40;1.30;;;;;;;;;;5105437;28;20085;-70
2022/10/02 03:21:39;;;;;;;3.10;1.58;;;;;;;;;;5106615;28;20520;-70
2022/10/02 03:24:18;;;;;;;2.08;1.50;;;;;;;;;;5105263;28;20463;-69
2022/10/02 03:27:00;;;;;;;1.85;1.17;;;;;;;;;;5104906;28;20055;-70
2022/10/02 03:29:33;;;;;;;4.93;1.40;;;;;;;;;;5105217;28;20039;-69
2022/10/02 03:32:01;;;;;;;2.65;1.45;;;;;;;;;;5105078;28;20052;-70
2022/10/02 03:34:31;;;;;;;1.30;1.20;;;;;;;;;;5104407;28;20073;-69
2022/10/02 03:37:00;;;;;;;2.05;1.30;;;;;;;;;;5105726;28;20403;-69
2022/10/02 03:39:27;;;;;;;2.28;1.40;;;;;;;;;;5105539;28;20112;-70
2022/10/02 03:41:56;;;;;;;11.27;10.48;;;;;;;;;;5105911;28;20131;-69
2022/10/02 03:44:24;;;;;;;7.45;6.85;;;;;;;;;;5105240;28;20043;-70
2022/10/02 03:46:51;;;;;;;5.32;4.28;;;;;;;;;;5105731;28;20044;-69
2022/10/02 03:49:19;;;;;;;8.82;5.20;;;;;;;;;;5104949;28;20051;-69
2022/10/02 03:51:47;;;;;;;4.85;4.30;;;;;;;;;;5105157;28;20090;-70
2022/10/02 03:54:16;;;;;;;6.95;6.20;;;;;;;;;;5105405;28;20616;-70
2022/10/02 03:56:57;;;;;;;6.65;4.63;;;;;;;;;;5104112;28;20521;-70
2022/10/02 03:59:36;;;;;;;2.78;2.50;;;;;;;;;;5105546;28;20048;-69
2022/10/02 04:02:07;;;;;;;1.75;1.65;;;;;;;;;;5108872;28;20521;-69
2022/10/02 04:04:42;;;;;;;4.05;2.13;;;;;;;;;;5107279;28;20551;-69
2022/10/02 04:07:12;;;;;;;6.07;2.15;;;;;;;;;;5107600;28;20035;-69
2022/10/02 04:09:43;;;;;;;14.05;1.85;;;;;;;;;;5109382;28;20047;-69
2022/10/02 04:12:29;;;;;;;3.10;1.40;;;;;;;;;;5091076;28;20059;-70
2022/10/02 04:15:00;;;;;;;2.33;1.50;;;;;;;;;;5107074;28;20325;-69
2022/10/02 04:17:48;;;;;;;2.65;1.75;;;;;;;;;;5108738;28;20074;-69
2022/10/02 04:20:30;;;;;;;4.60;1.88;;;;;;;;;;5108457;28;20044;-70
2022/10/02 04:22:58;;;;;;;;;;;;;;;;;;5106817;28;20044;-69
2022/10/02 04:25:28;;;;;;;1.90;1.80;;;;;;;;;;5107548;28;20030;-69
2022/10/02 04:28:11;;;;;;;3.53;2.00;;;;;;;;;;5108144;28;20110;-69
2022/10/02 04:30:38;;;;;;;1.90;1.60;;;;;;;;;;5107297;28;20047;-70
2022/10/02 04:33:11;;;;;;;1.88;1.77;;;;;;;;;;5107450;28;20047;-69
2022/10/02 04:35:52;;;;;;;1.52;1.35;;;;;;;;;;5107488;28;20070;-69
2022/10/02 04:38:20;;;;;;;2.58;1.75;;;;;;;;;;5107723;28;20066;-70
2022/10/02 04:40:53;;;;;;;2.58;1.85;;;;;;;;;;5107535;28;20496;-69
2022/10/02 04:43:27;;;;;;;1.90;1.80;;;;;;;;;;5105993;28;20118;-69
2022/10/02 04:46:07;;;;;;;3.83;2.08;;;;;;;;;;5107452;28;20054;-70
2022/10/02 04:48:53;;;;;;;2.50;2.22;;;;;;;;;;5108246;28;20054;-69
2022/10/02 04:51:30;;;;;;;3.70;2.13;;;;;;;;;;5108035;28;20127;-69
2022/10/02 04:54:16;;;;;;;1.88;1.35;;;;;;;;;;5107270;28;20465;-69
2022/10/02 04:57:02;;;;;;;5.53;1.92;;;;;;;;;;5107358;28;20065;-70
2022/10/02 04:59:30;;;;;;;7.03;2.58;;;;;;;;;;5107429;28;20104;-69
2022/10/02 05:02:15;;;;;;;5.10;2.25;;;;;;;;;;5105868;28;20048;-69
2022/10/02 05:05:19;;;;;;;2.75;2.20;;;;;;;;;;5106435;28;20585;-68
2022/10/02 05:07:55;;;;;;;2.83;2.17;;;;;;;;;;5041721;28;20049;-70
2022/10/02 05:10:28;;;;;;;5.47;2.13;;;;;;;;;;5098296;28;20055;-69
2022/10/02 05:12:56;;;;;;;3.63;2.10;;;;;;;;;;5107241;28;20044;-69
2022/10/02 05:15:41;;;;;;;4.97;3.03;;;;;;;;;;5106661;28;20052;-69
2022/10/02 05:18:15;;;;;;;4.20;2.28;;;;;;;;;;5102639;28;20043;-69
2022/10/02 05:20:55;;;;;;;2.25;2.00;;;;;;;;;;5106816;28;20051;-69
2022/10/02 05:23:29;;;;;;;3.22;2.83;;;;;;;;;;5106499;28;20135;-69
2022/10/02 05:26:30;;;;;;;2.50;2.25;;;;;;;;;;5106095;28;20494;-70
2022/10/02 05:29:16;;;;;;;4.20;2.95;;;;;;;;;;5052113;28;20154;-69
2022/10/02 05:31:57;;;;;;;4.82;2.33;;;;;;;;;;5105160;28;20491;-70
2022/10/02 05:34:24;;;;;;;9.70;2.30;;;;;;;;;;5105896;28;20051;-69
2022/10/02 05:37:12;;;;;;;4.78;2.40;;;;;;;;;;5104839;28;20422;-70
2022/10/02 05:39:47;;;;;;;5.00;1.85;;;;;;;;;;5106299;28;20051;-70
2022/10/02 05:42:24;;;;;;;7.00;1.98;;;;;;;;;;5106610;28;20035;-70
2022/10/02 05:45:00;;;;;;;5.32;2.80;;;;;;;;;;5106382;28;20051;-70
2022/10/02 05:47:29;;;;;;;3.08;1.70;;;;;;;;;;5104638;28;20050;-69
2022/10/02 05:50:12;;;;;;;2.50;2.10;;;;;;;;;;5106564;28;20051;-69
2022/10/02 05:52:43;;;;;;;4.30;2.08;;;;;;;;;;5106780;28;20051;-68
2022/10/02 05:55:15;;;;;;;3.75;1.40;;;;;;;;;;5103045;28;20423;-70
2022/10/02 05:57:46;;;;;;;8.50;2.88;;;;;;;;;;5098125;28;20119;-70
2022/10/02 06:00:13;;;;;;;7.80;2.38;;;;;;;;;;5086878;28;20157;-69
2022/10/02 06:02:59;;;;;;;5.20;2.40;;;;;;;;;;5105681;28;20047;-70
2022/10/02 06:05:33;;;;;;;5.22;2.42;;;;;;;;;;5102640;28;20050;-69
2022/10/02 06:08:03;;;;;;;6.18;2.10;;;;;;;;;;5081350;28;20044;-70
2022/10/02 06:10:35;;;;;;;4.18;2.03;;;;;;;;;;5094870;28;20040;-69
2022/10/02 06:13:02;;;;;;;;;;;;;;;;;;5104944;28;20454;-70
2022/10/02 06:15:44;;;;;;;2.67;1.60;;;;;;;;;;5105357;28;20341;-70
2022/10/02 06:18:26;;;;;;;4.67;1.30;;;;;;;;;;5105276;28;20049;-69
2022/10/02 06:20:55;;;;;;;5.85;1.50;;;;;;;;;;5105804;28;20131;-68
2022/10/02 06:23:30;;;;;;;7.72;1.60;;;;;;;;;;5090470;28;20052;-69
2022/10/02 06:26:00;;;;;;;7.75;1.63;;;;;;;;;;5084873;28;20249;-69
2022/10/02 06:28:28;;;;;;;8.65;2.00;;;;;;;;;;5087784;28;20040;-70
2022/10/02 06:30:59;;;;;;;4.97;1.58;;;;;;;;;;5101188;28;20051;-70
2022/10/02 06:33:28;;;;;;;5.32;1.20;;;;;;;;;;5103148;28;20047;-69
2022/10/02 06:36:12;;;;;;;3.17;1.55;;;;;;;;;;5105752;28;20039;-70
2022/10/02 06:38:59;;;;;;;6.53;1.48;;;;;;;;;;5105832;28;20097;-69
2022/10/02 06:41:39;;;;;;;3.92;1.10;;;;;;;;;;5106526;28;20039;-68
2022/10/02 06:44:19;;;;;;;3.03;1.20;;;;;;;;;;5105640;28;20383;-70
2022/10/02 06:47:01;;;;;;;7.85;1.80;;;;;;;;;;5105553;28;20047;-69
2022/10/02 06:49:32;;;;;;;2.45;1.42;;;;;;;;;;5106309;28;20419;-71
2022/10/02 06:52:11;;;;;;;2.08;1.35;;;;;;;;;;5105841;28;20517;-69
2022/10/02 06:54:48;;;;;;;3.50;1.52;;;;;;;;;;5103232;28;20512;-70
2022/10/02 06:57:19;;;;;;;5.35;1.63;;;;;;;;;;5102728;28;20278;-68
2022/10/02 06:59:46;;;;;;;3.33;1.23;;;;;;;;;;5106083;28;20127;-70
2022/10/02 07:02:20;;;;;;;3.85;1.50;;;;;;;;;;5105384;28;20494;-69
2022/10/02 07:05:06;;;;;;;1.98;1.65;;;;;;;;;;5105415;28;20051;-69
2022/10/02 07:07:40;;;;;;;5.55;1.70;;;;;;;;;;5105156;28;20582;-69
2022/10/02 07:10:21;;;;;;;3.90;1.73;;;;;;;;;;5105243;28;20398;-69
2022/10/02 07:12:52;;;;;;;4.15;1.80;;;;;;;;;;5104658;28;20047;-70
2022/10/02 07:15:20;;;;;;;5.90;3.13;;;;;;;;;;5105110;28;20043;-69
2022/10/02 07:17:54;;;;;;;9.05;4.20;;;;;;;;;;5105473;28;20282;-70
2022/10/02 07:20:40;;;;;;;7.75;3.33;;;;;;;;;;5106121;28;20047;-69
2022/10/02 07:23:16;;;;;;;10.70;4.63;;;;;;;;;;5105025;28;20046;-70
2022/10/02 07:25:57;;;;;;;5.88;3.08;;;;;;;;;;5105353;28;20051;-69
2022/10/02 07:28:32;;;;;;;6.00;3.58;;;;;;;;;;5103752;28;20058;-70
2022/10/02 07:30:59;;;;;;;21.27;14.38;;;;;;;;;;5100334;28;20507;-69
2022/10/02 07:33:30;;;;;;;14.43;9.70;;;;;;;;;;5097933;28;20040;-69
2022/10/02 07:36:16;;;;;;;22.00;16.17;;;;;;;;;;5106739;28;20063;-69
2022/10/02 07:38:56;;;;;;;18.77;12.57;;;;;;;;;;5093577;28;20063;-69
2022/10/02 07:41:35;;;;;;;12.50;7.05;;;;;;;;;;5090131;28;20052;-69
2022/10/02 07:44:03;;;;;;;14.05;8.70;;;;;;;;;;5091046;28;20067;-68
2022/10/02 07:46:40;;;;;;;14.68;10.75;;;;;;;;;;5094808;28;20416;-71
2022/10/02 07:49:20;;;;;;;11.60;7.28;;;;;;;;;;5100986;28;20051;-70
2022/10/02 07:51:50;;;;;;;10.63;6.15;;;;;;;;;;5108891;28;20097;-69
2022/10/02 07:54:33;;;;;;;8.43;5.63;;;;;;;;;;5109095;28;20097;-69
2022/10/02 07:57:25;;;;;;;17.23;12.55;;;;;;;;;;5108019;28;20097;-69
2022/10/02 07:59:54;;;;;;;18.02;11.00;;;;;;;;;;5079526;28;20384;-69
2022/10/02 08:02:32;;;;;;;18.88;11.93;;;;;;;;;;5088741;28;20545;-70
2022/10/02 08:05:02;;;;;;;21.02;10.77;;;;;;;;;;5088120;28;20048;-70
2022/10/02 08:07:30;;;;;;;13.63;8.35;;;;;;;;;;5089474;28;20126;-68
2022/10/02 08:10:01;;;;;;;6.75;4.18;;;;;;;;;;5107579;28;20048;-69
2022/10/02 08:12:29;;;;;;;6.10;3.20;;;;;;;;;;5108004;28;20058;-69
2022/10/02 08:14:58;;;;;;;8.55;3.42;;;;;;;;;;5107359;28;20067;-70
2022/10/02 08:17:29;;;;;;;5.53;3.20;;;;;;;;;;5108345;28;20483;-69
2022/10/02 08:20:02;;;;;;;9.70;3.25;;;;;;;;;;5107633;28;20040;-68
2022/10/02 08:22:40;;;;;;;9.75;3.05;;;;;;;;;;5107974;28;20579;-69
2022/10/02 08:25:24;;;;;;;4.60;2.05;;;;;;;;;;5106302;28;20054;-70
2022/10/02 08:28:10;;;;;;;7.75;1.98;;;;;;;;;;5106245;28;20430;-69
2022/10/02 08:30:37;;;;;;;5.95;2.45;;;;;;;;;;5105853;28;20051;-70
2022/10/02 08:33:13;;;;;;;3.65;2.20;;;;;;;;;;5108187;28;20285;-70
2022/10/02 08:35:47;;;;;;;4.35;2.08;;;;;;;;;;5104468;28;20040;-70
2022/10/02 08:38:31;;;;;;;4.88;2.47;;;;;;;;;;5106645;28;20040;-70
2022/10/02 08:41:17;;;;;;;5.75;2.75;;;;;;;;;;5091326;28;20102;-69
2022/10/02 08:43:44;;;;;;;5.40;2.40;;;;;;;;;;5085379;28;20044;-68
2022/10/02 08:46:22;;;;;;;4.25;2.90;;;;;;;;;;5094388;28;20055;-70
2022/10/02 08:49:02;;;;;;;6.45;2.72;;;;;;;;;;5092054;28;20036;-69
2022/10/02 08:51:30;;;;;;;7.10;2.40;;;;;;;;;;5105015;28;20035;-70
2022/10/02 08:53:57;;;;;;;9.05;2.58;;;;;;;;;;5087493;28;20051;-70
2022/10/02 08:56:25;;;;;;;8.43;2.92;;;;;;;;;;5086868;28;20044;-68
2022/10/02 08:58:52;;;;;;;6.05;3.05;;;;;;;;;;5085949;28;20046;-69
2022/10/02 09:01:20;;;;;;;7.60;3.00;;;;;;;;;;5097366;28;20491;-70
2022/10/02 09:04:07;;;;;;;4.47;2.08;;;;;;;;;;5104264;28;20043;-69
2022/10/02 09:06:44;;;;;;;5.75;2.00;;;;;;;;;;5104713;28;20089;-70
2022/10/02 09:09:26;;;;;;;4.65;1.65;;;;;;;;;;5106367;28;20040;-69
2022/10/02 09:11:58;;;;;;;6.43;2.65;;;;;;;;;;5107789;28;20100;-69
2022/10/02 09:14:25;;;;;;;3.78;1.42;;;;;;;;;;5105444;28;20051;-70
2022/10/02 09:16:56;;;;;;;2.55;1.70;;;;;;;;;;5105895;28;20040;-70
2022/10/02 09:19:42;;;;;;;4.20;1.90;;;;;;;;;;5089105;28;20048;-70
2022/10/02 09:22:28;;;;;;;10.48;3.03;;;;;;;;;;5107317;28;20260;-70
2022/10/02 09:25:01;;;;;;;3.30;2.50;;;;;;;;;;5107661;28;20048;-73
2022/10/02 09:27:32;;;;;;;5.65;1.98;;;;;;;;;;5107073;28;20502;-70
2022/10/02 09:29:59;;;;;;;6.55;2.47;;;;;;;;;;5106821;28;20392;-70
2022/10/02 09:32:33;;;;;;;7.35;2.83;;;;;;;;;;5107643;28;20039;-70
2022/10/02 09:35:19;;;;;;;3.05;1.60;;;;;;;;;;5106697;28;20071;-71
2022/10/02 09:37:58;;;;;;;5.32;2.10;;;;;;;;;;5105429;28;20293;-70
2022/10/02 09:40:32;;;;;;;7.72;2.30;;;;;;;;;;5106484;28;20089;-70
2022/10/02 09:43:02;;;;;;;5.38;1.52;;;;;;;;;;5107151;28;20519;-71
2022/10/02 09:45:55;;;;;;;7.57;2.20;;;;;;;;;;5106637;28;20075;-71
2022/10/02 09:48:44;;;;;;;6.85;2.20;;;;;;;;;;5105968;28;20104;-69
2022/10/02 09:51:17;;;;;;;1.75;1.50;;;;;;;;;;5106372;28;20039;-71
2022/10/02 09:53:51;;;;;;;7.07;2.20;;;;;;;;;;5106814;28;20048;-70
2022/10/02 09:56:24;;;;;;;5.30;2.30;;;;;;;;;;5106548;28;20095;-71
2022/10/02 09:59:13;;;;;;;4.57;2.10;;;;;;;;;;5105279;28;20036;-71
2022/10/02 10:02:00;;;;;;;1.35;1.20;;;;;;;;;;5107009;28;20042;-70
2022/10/02 10:04:34;;;;;;;3.67;1.50;;;;;;;;;;5106247;28;20117;-71
2022/10/02 10:07:40;;;;;;;6.18;1.92;;;;;;;;;;5106813;28;20047;-71
2022/10/02 10:10:18;;;;;;;1.95;1.10;;;;;;;;;;5105464;28;20067;-72
2022/10/02 10:13:06;;;;;;;1.52;1.13;;;;;;;;;;5103644;28;20051;-75
2022/10/02 10:15:36;;;;;;;4.70;1.40;;;;;;;;;;5096725;28;20066;-71
2022/10/02 10:18:10;;;;;;;6.00;1.60;;;;;;;;;;5089144;28;20105;-72
2022/10/02 10:20:44;;;;;;;6.18;1.27;;;;;;;;;;5086353;28;20089;-71
2022/10/02 10:23:30;;;;;;;6.05;1.38;;;;;;;;;;5086257;28;20051;-71
2022/10/02 10:26:04;;;;;;;6.05;1.45;;;;;;;;;;5094508;28;20055;-71
2022/10/02 10:28:50;;;;;;;2.88;1.33;;;;;;;;;;5106546;28;20395;-71
2022/10/02 10:31:33;;;;;;;5.22;1.73;;;;;;;;;;5099296;28;20046;-71
2022/10/02 10:34:10;;;;;;;4.45;2.13;;;;;;;;;;5100405;28;20154;-70
2022/10/02 10:39:48;;;;;;;3.03;1.90;;;;;;;;;;5085964;28;20036;-70
2022/10/02 10:42:41;;;;;;;3.35;1.52;;;;;;;;;;5085726;28;20033;-72
2022/10/02 10:45:43;;;;;;;3.05;1.23;;;;;;;;;;5085274;28;20449;-71
2022/10/02 10:48:29;;;;;;;2.35;1.33;;;;;;;;;;5085481;28;20077;-71
2022/10/02 10:51:13;;;;;;;2.22;1.48;;;;;;;;;;5085323;28;20055;-70
2022/10/02 10:53:43;;;;;;;9.27;2.38;;;;;;;;;;5094701;28;20135;-70
2022/10/02 10:56:18;;;;;;;3.72;1.50;;;;;;;;;;5093355;28;20120;-70
2022/10/02 10:59:05;;;;;;;3.22;1.42;;;;;;;;;;5096771;28;20051;-70
2022/10/02 11:01:37;;;;;;;3.65;1.77;;;;;;;;;;5105361;28;20047;-70
2022/10/02 11:04:12;;;;;;;4.35;1.83;;;;;;;;;;5103614;28;20502;-70
2022/10/02 11:06:44;;;;;;;5.63;1.90;;;;;;;;;;5104806;28;20050;-70
2022/10/02 11:09:41;;;;;;;6.07;2.05;;;;;;;;;;5103980;28;20446;-70
2022/10/02 11:12:09;;;;;;;4.03;1.83;;;;;;;;;;5086552;28;20414;-69
2022/10/02 11:14:46;;;;;;;3.63;1.70;;;;;;;;;;5101499;28;20083;-69
2022/10/02 11:17:21;;;;;;;4.78;1.90;;;;;;;;;;5089888;28;20047;-69
2022/10/02 11:19:49;;;;;;;4.13;1.88;;;;;;;;;;5101205;28;20371;-70
2022/10/02 11:22:32;;;;;;;4.72;1.80;;;;;;;;;;5105708;28;20082;-70
2022/10/02 11:25:18;;;;;;;1.85;1.50;;;;;;;;;;5103556;28;20046;-70
2022/10/02 11:27:58;;;;;;;5.80;1.67;;;;;;;;;;5101695;28;20054;-71
2022/10/02 11:30:25;;;;;;;3.13;1.80;;;;;;;;;;5093871;28;20043;-70
2022/10/02 11:32:56;;;;;;;8.73;2.58;;;;;;;;;;5104996;28;20051;-70
2022/10/02 11:35:47;;;;;;;5.95;2.03;;;;;;;;;;5104935;28;20483;-71
2022/10/02 11:38:24;;;;;;;5.38;2.30;;;;;;;;;;5104881;28;20532;-71
2022/10/02 11:40:59;;;;;;;5.05;1.40;;;;;;;;;;5103275;28;20039;-71
2022/10/02 11:43:27;;;;;;;3.40;1.80;;;;;;;;;;5088015;28;20059;-72
2022/10/02 11:46:13;;;;;;;8.98;2.65;;;;;;;;;;5086929;28;20047;-72
2022/10/02 11:48:59;;;;;;;8.77;2.67;;;;;;;;;;5102770;28;20048;-72
2022/10/02 11:51:27;;;;;;;4.78;1.95;;;;;;;;;;5087783;28;20136;-71
2022/10/02 11:54:01;;;;;;;7.03;1.95;;;;;;;;;;5084736;28;20036;-71
2022/10/02 11:57:00;;;;;;;5.60;2.42;;;;;;;;;;5093456;28;20064;-71
2022/10/02 11:59:35;;;;;;;3.72;1.55;;;;;;;;;;5086845;28;20451;-71
2022/10/02 12:02:10;;;;;;;5.40;1.67;;;;;;;;;;5094100;28;20059;-72
2022/10/02 12:04:51;;;;;;;7.45;1.55;;;;;;;;;;5104266;28;20059;-72
2022/10/02 12:07:21;;;;;;;5.68;1.92;;;;;;;;;;5101733;28;20140;-71
2022/10/02 12:10:01;;;;;;;2.45;1.65;;;;;;;;;;5104360;28;20495;-71
2022/10/02 12:12:38;;;;;;;12.02;2.40;;;;;;;;;;5093093;28;20121;-72
2022/10/02 12:15:14;;;;;;;3.85;2.10;;;;;;;;;;5088719;28;20407;-71
2022/10/02 12:18:00;;;;;;;4.22;1.75;;;;;;;;;;5094383;28;20047;-71
2022/10/02 12:29:29;;;;;;;3.83;1.95;;;;;;;;;;5092962;28;20414;-71
2022/10/02 12:32:00;;;;;;;2.97;2.10;;;;;;;;;;5105515;28;20441;-71
2022/10/02 12:34:27;;;;;;;5.95;2.42;;;;;;;;;;5101327;28;20507;-72
2022/10/02 12:36:57;;;;;;;6.25;2.25;;;;;;;;;;5106791;28;20702;-72
2022/10/02 12:39:34;;;;;;;20.58;2.50;;;;;;;;;;5090397;28;20043;-71
2022/10/02 12:42:19;;;;;;;7.70;2.25;;;;;;;;;;5099665;28;20047;-72
2022/10/02 12:45:13;;;;;;;5.38;2.35;;;;;;;;;;5104352;28;20044;-72
2022/10/02 12:48:19;;;;;;;3.70;1.90;;;;;;;;;;5077332;28;20131;-71
2022/10/02 12:50:54;;;;;;;4.55;1.50;;;;;;;;;;5008455;28;20085;-71
2022/10/02 12:53:31;;;;;;;7.20;2.63;;;;;;;;;;5040603;28;20128;-71
2022/10/02 12:56:00;;;;;;;9.65;2.83;;;;;;;;;;5062467;28;20043;-71
2022/10/02 12:58:50;;;;;;;3.20;1.75;;;;;;;;;;5087720;28;20119;-71
2022/10/02 13:01:36;;;;;;;3.83;2.08;;;;;;;;;;5049992;28;20055;-71
2022/10/02 13:04:23;;;;;;;5.03;2.40;;;;;;;;;;5092925;28;20035;-72
2022/10/02 13:06:56;;;;;;;7.35;3.03;;;;;;;;;;5107587;28;20040;-71
2022/10/02 13:09:26;;;;;;;3.13;2.00;;;;;;;;;;5086241;28;20040;-72
2022/10/02 13:12:05;;;;;;;2.17;1.98;;;;;;;;;;5106114;28;20459;-71
2022/10/02 13:14:44;;;;;;;4.97;2.22;;;;;;;;;;5107633;28;20051;-72
2022/10/02 13:17:21;;;;;;;6.70;3.78;;;;;;;;;;5092108;28;20089;-72
2022/10/02 13:19:48;;;;;;;4.50;2.83;;;;;;;;;;5105906;28;20043;-71
2022/10/02 13:22:24;;;;;;;6.28;2.38;;;;;;;;;;5107169;28;20096;-71
2022/10/02 13:24:57;;;;;;;5.10;2.83;;;;;;;;;;5107795;28;20094;-71
2022/10/02 13:27:35;;;;;;;8.23;4.40;;;;;;;;;;5104073;28;20050;-71
2022/10/02 13:30:30;;;;;;;5.55;3.20;;;;;;;;;;5106629;28;20047;-71
2022/10/02 13:33:17;;;;;;;4.20;2.72;;;;;;;;;;5107069;28;20342;-72
2022/10/02 13:35:50;;;;;;;6.45;3.33;;;;;;;;;;5106218;28;20040;-71
2022/10/02 13:38:27;;;;;;;5.18;3.45;;;;;;;;;;5105763;28;20417;-71
2022/10/02 13:41:02;;;;;;;3.80;2.58;;;;;;;;;;5105584;28;20576;-70
2022/10/02 13:43:41;;;;;;;3.15;2.70;;;;;;;;;;5106320;28;20035;-70
2022/10/02 13:46:27;;;;;;;7.20;2.50;;;;;;;;;;5106045;28;20353;-70
2022/10/02 13:49:13;;;;;;;9.85;2.88;;;;;;;;;;5106255;28;20039;-71
2022/10/02 13:51:56;;;;;;;10.98;3.13;;;;;;;;;;5106315;28;20130;-70
2022/10/02 13:54:49;;;;;;;12.65;3.95;;;;;;;;;;5097409;28;20543;-71
2022/10/02 13:57:19;;;;;;;7.65;3.50;;;;;;;;;;5090559;28;20036;-71
2022/10/02 13:59:54;;;;;;;9.10;3.85;;;;;;;;;;5094722;28;20062;-71
2022/10/02 14:02:32;;;;;;;6.35;4.22;;;;;;;;;;5106018;28;20487;-71
2022/10/02 14:05:00;;;;;;;6.35;3.72;;;;;;;;;;5090383;28;20055;-71
2022/10/02 14:07:37;;;;;;;5.30;3.05;;;;;;;;;;5084214;28;20040;-72
2022/10/02 14:10:24;;;;;;;5.35;3.35;;;;;;;;;;5096622;28;20047;-71
2022/10/02 14:12:59;;;;;;;6.30;3.53;;;;;;;;;;5092736;28;20048;-72
2022/10/02 14:15:29;;;;;;;6.38;3.38;;;;;;;;;;5106640;28;20486;-72
2022/10/02 14:17:57;;;;;;;10.32;5.18;;;;;;;;;;5097418;28;20454;-70
2022/10/02 14:20:36;;;;;;;7.38;6.57;;;;;;;;;;5091668;28;20156;-71
2022/10/02 14:23:21;;;;;;;9.77;7.70;;;;;;;;;;5103968;28;20043;-71
2022/10/02 14:25:51;;;;;;;6.47;5.20;;;;;;;;;;5092483;28;20093;-71
2022/10/02 14:28:25;;;;;;;5.13;3.78;;;;;;;;;;5103481;28;20031;-71
2022/10/02 14:31:22;;;;;;;5.20;3.95;;;;;;;;;;5096661;28;20485;-71
2022/10/02 14:34:08;;;;;;;5.93;5.10;;;;;;;;;;5083253;28;20043;-71
2022/10/02 14:36:40;;;;;;;10.30;6.40;;;;;;;;;;5095799;28;20066;-71
2022/10/02 14:39:10;;;;;;;10.20;8.68;;;;;;;;;;5092549;28;20055;-71
2022/10/02 14:41:40;;;;;;;8.73;4.75;;;;;;;;;;5092806;28;20523;-71
2022/10/02 14:44:12;;;;;;;8.05;3.92;;;;;;;;;;5096269;28;20040;-71
2022/10/02 14:46:39;;;;;;;9.23;4.72;;;;;;;;;;5088688;28;20051;-72
2022/10/02 14:49:07;;;;;;;18.05;14.07;;;;;;;;;;5104848;28;20134;-71
2022/10/02 14:51:35;;;;;;;16.80;11.07;;;;;;;;;;5105088;28;20079;-71
2022/10/02 14:54:16;;;;;;;7.45;5.65;;;;;;;;;;5119768;27;20067;-71
2022/10/02 14:56:43;;;;;;;4.75;3.95;;;;;;;;;;5099268;28;20206;-71
2022/10/02 14:59:11;;;;;;;4.13;2.60;;;;;;;;;;5092521;28;20044;-71
2022/10/02 15:01:51;;;;;;;3.28;2.05;;;;;;;;;;5089712;28;20142;-71
2022/10/02 15:04:27;;;;;;;3.25;2.22;;;;;;;;;;5090620;28;20443;-71
2022/10/02 15:07:10;;;;;;;2.15;1.92;;;;;;;;;;5095432;28;20093;-70
2022/10/02 15:09:53;;;;;;;5.97;2.15;;;;;;;;;;5091834;28;20055;-72
2022/10/02 15:12:42;;;;;;;1.80;1.30;;;;;;;;;;5094479;28;20051;-70
2022/10/02 15:15:10;;;;;;;3.67;2.20;;;;;;;;;;5084611;28;20442;-71
2022/10/02 15:17:56;;;;;;;4.63;2.08;;;;;;;;;;5097422;28;20512;-71
2022/10/02 15:20:23;;;;;;;2.17;1.00;;;;;;;;;;5102508;28;20044;-71
2022/10/02 15:23:02;;;;;;;4.32;2.95;;;;;;;;;;5105127;28;20036;-72
2022/10/02 15:25:48;;;;;;;5.00;2.60;;;;;;;;;;5104076;28;20050;-71
2022/10/02 15:28:44;;;;;;;2.30;2.08;;;;;;;;;;5100372;28;20124;-70
2022/10/02 15:31:18;;;;;;;2.78;2.10;;;;;;;;;;5072038;28;20054;-71
2022/10/02 15:33:54;;;;;;;2.72;1.77;;;;;;;;;;5100313;28;20085;-72
2022/10/02 15:36:34;;;;;;;6.03;2.13;;;;;;;;;;5085330;28;20486;-71
2022/10/02 15:39:40;;;;;;;4.85;3.15;;;;;;;;;;5083256;28;20040;-71
2022/10/02 15:42:09;;;;;;;5.13;3.60;;;;;;;;;;5037869;28;20126;-70
2022/10/02 15:44:45;;;;;;;3.67;2.88;;;;;;;;;;5040654;28;20528;-71
2022/10/02 15:47:19;;;;;;;2.97;2.58;;;;;;;;;;5065937;28;20491;-72
2022/10/02 15:49:56;;;;;;;3.78;2.85;;;;;;;;;;5092857;28;20534;-72